sensor_id;sensor_type;location;lat;lon;timestamp;temperature;humidity
12911;DHT22;6523;49.758;6.120;2023-02-10T00:01:26;-4.20;99.90
12911;DHT22;6523;49.758;6.120;2023-02-10T00:03:52;-4.20;99.90
12911;DHT22;6523;49.758;6.120;2023-02-10T00:06:19;-4.10;99.90
12911;DHT22;6523;49.758;6.120;2023-02-10T00:08:48;-4.20;99.90
12911;DHT22;6523;49.758;6.120;2023-02-10T00:11:14;-4.20;99.90
12911;DHT22;6523;49.758;6.120;2023-02-10T00:13:41;-4.10;99.90
12911;DHT22;6523;49.758;6.120;2023-02-10T00:16:11;-4.00;99.90
12911;DHT22;6523;49.758;6.120;2023-02-10T00:18:36;-3.90;99.90
12911;DHT22;6523;49.758;6.120;2023-02-10T00:21:14;-3.80;99.90
12911;DHT22;6523;49.758;6.120;2023-02-10T00:23:41;-3.80;99.90
12911;DHT22;6523;49.758;6.120;2023-02-10T00:26:10;-3.80;99.90
12911;DHT22;6523;49.758;6.120;2023-02-10T00:28:36;-3.70;99.90
12911;DHT22;6523;49.758;6.120;2023-02-10T00:31:10;-3.60;99.90
12911;DHT22;6523;49.758;6.120;2023-02-10T00:33:35;-3.60;99.90
12911;DHT22;6523;49.758;6.120;2023-02-10T00:36:05;-3.50;99.90
12911;DHT22;6523;49.758;6.120;2023-02-10T00:38:32;-3.40;99.90
12911;DHT22;6523;49.758;6.120;2023-02-10T00:41:09;-3.30;99.90
12911;DHT22;6523;49.758;6.120;2023-02-10T00:43:35;-3.30;99.90
12911;DHT22;6523;49.758;6.120;2023-02-10T00:46:02;-3.40;99.90
12911;DHT22;6523;49.758;6.120;2023-02-10T00:48:28;-3.40;99.90
12911;DHT22;6523;49.758;6.120;2023-02-10T00:50:54;-3.30;99.90
12911;DHT22;6523;49.758;6.120;2023-02-10T00:53:19;-3.40;99.90
12911;DHT22;6523;49.758;6.120;2023-02-10T00:55:45;-3.30;99.90
12911;DHT22;6523;49.758;6.120;2023-02-10T00:58:10;-3.20;99.90
12911;DHT22;6523;49.758;6.120;2023-02-10T01:00:36;-3.00;99.90
12911;DHT22;6523;49.758;6.120;2023-02-10T01:03:01;-2.90;99.90
12911;DHT22;6523;49.758;6.120;2023-02-10T01:05:27;-2.90;99.90
12911;DHT22;6523;49.758;6.120;2023-02-10T01:07:53;-2.90;99.90
12911;DHT22;6523;49.758;6.120;2023-02-10T01:10:19;-2.90;99.90
12911;DHT22;6523;49.758;6.120;2023-02-10T01:12:44;-2.90;99.90
12911;DHT22;6523;49.758;6.120;2023-02-10T01:15:10;-2.90;99.90
12911;DHT22;6523;49.758;6.120;2023-02-10T01:17:36;-2.90;99.90
12911;DHT22;6523;49.758;6.120;2023-02-10T01:20:03;-3.00;99.90
12911;DHT22;6523;49.758;6.120;2023-02-10T01:22:28;-2.90;99.90
12911;DHT22;6523;49.758;6.120;2023-02-10T01:24:54;-2.80;99.90
12911;DHT22;6523;49.758;6.120;2023-02-10T01:27:19;-2.90;99.90
12911;DHT22;6523;49.758;6.120;2023-02-10T01:29:45;-2.90;99.90
12911;DHT22;6523;49.758;6.120;2023-02-10T01:32:10;-2.90;99.90
12911;DHT22;6523;49.758;6.120;2023-02-10T01:34:36;-2.80;99.90
12911;DHT22;6523;49.758;6.120;2023-02-10T01:37:02;-2.70;99.90
12911;DHT22;6523;49.758;6.120;2023-02-10T01:39:27;-2.70;99.90
12911;DHT22;6523;49.758;6.120;2023-02-10T01:41:53;-2.70;99.90
12911;DHT22;6523;49.758;6.120;2023-02-10T01:46:45;-2.60;99.90
12911;DHT22;6523;49.758;6.120;2023-02-10T01:49:15;-2.50;99.90
12911;DHT22;6523;49.758;6.120;2023-02-10T01:54:20;-2.50;99.90
12911;DHT22;6523;49.758;6.120;2023-02-10T01:56:49;-2.50;99.90
12911;DHT22;6523;49.758;6.120;2023-02-10T01:59:15;-2.50;99.90
12911;DHT22;6523;49.758;6.120;2023-02-10T02:01:41;-2.40;99.90
12911;DHT22;6523;49.758;6.120;2023-02-10T02:04:07;-2.50;99.90
12911;DHT22;6523;49.758;6.120;2023-02-10T02:06:33;-2.40;99.90
12911;DHT22;6523;49.758;6.120;2023-02-10T02:09:00;-2.40;99.90
12911;DHT22;6523;49.758;6.120;2023-02-10T02:14:51;-2.40;99.90
12911;DHT22;6523;49.758;6.120;2023-02-10T02:17:32;-2.30;99.90
12911;DHT22;6523;49.758;6.120;2023-02-10T02:20:09;-2.30;99.90
12911;DHT22;6523;49.758;6.120;2023-02-10T02:34:10;-2.40;99.90
12911;DHT22;6523;49.758;6.120;2023-02-10T02:36:41;-2.40;99.90
12911;DHT22;6523;49.758;6.120;2023-02-10T02:39:08;-2.30;99.90
12911;DHT22;6523;49.758;6.120;2023-02-10T02:41:34;-2.30;99.90
12911;DHT22;6523;49.758;6.120;2023-02-10T02:44:00;-2.30;99.90
12911;DHT22;6523;49.758;6.120;2023-02-10T02:51:52;-2.10;99.90
12911;DHT22;6523;49.758;6.120;2023-02-10T02:54:45;-2.10;99.90
12911;DHT22;6523;49.758;6.120;2023-02-10T03:00:18;-2.00;99.90
12911;DHT22;6523;49.758;6.120;2023-02-10T03:02:45;-2.10;99.90
12911;DHT22;6523;49.758;6.120;2023-02-10T03:05:18;-2.00;99.90
12911;DHT22;6523;49.758;6.120;2023-02-10T03:07:45;-2.00;99.90
12911;DHT22;6523;49.758;6.120;2023-02-10T03:10:11;-2.00;99.90
12911;DHT22;6523;49.758;6.120;2023-02-10T03:12:36;-1.90;99.90
12911;DHT22;6523;49.758;6.120;2023-02-10T03:15:02;-1.90;99.90
12911;DHT22;6523;49.758;6.120;2023-02-10T03:17:28;-1.90;99.90
12911;DHT22;6523;49.758;6.120;2023-02-10T03:19:53;-2.00;99.90
12911;DHT22;6523;49.758;6.120;2023-02-10T03:22:19;-2.00;99.90
12911;DHT22;6523;49.758;6.120;2023-02-10T03:24:45;-2.10;99.90
12911;DHT22;6523;49.758;6.120;2023-02-10T03:27:10;-2.00;99.90
12911;DHT22;6523;49.758;6.120;2023-02-10T03:29:36;-2.00;99.90
12911;DHT22;6523;49.758;6.120;2023-02-10T03:32:02;-2.10;99.90
12911;DHT22;6523;49.758;6.120;2023-02-10T03:34:28;-2.10;99.90
12911;DHT22;6523;49.758;6.120;2023-02-10T03:36:54;-2.10;99.90
12911;DHT22;6523;49.758;6.120;2023-02-10T03:39:20;-2.10;99.90
12911;DHT22;6523;49.758;6.120;2023-02-10T03:41:45;-2.00;99.90
12911;DHT22;6523;49.758;6.120;2023-02-10T03:44:11;-1.90;99.90
12911;DHT22;6523;49.758;6.120;2023-02-10T03:46:36;-1.90;99.90
12911;DHT22;6523;49.758;6.120;2023-02-10T03:49:03;-1.90;99.90
12911;DHT22;6523;49.758;6.120;2023-02-10T03:51:29;-1.80;99.90
12911;DHT22;6523;49.758;6.120;2023-02-10T03:53:54;-1.80;99.90
12911;DHT22;6523;49.758;6.120;2023-02-10T03:56:20;-1.80;99.90
12911;DHT22;6523;49.758;6.120;2023-02-10T03:58:46;-1.90;99.90
12911;DHT22;6523;49.758;6.120;2023-02-10T04:01:16;-1.80;99.90
12911;DHT22;6523;49.758;6.120;2023-02-10T04:03:43;-1.70;99.90
12911;DHT22;6523;49.758;6.120;2023-02-10T04:06:09;-1.80;99.90
12911;DHT22;6523;49.758;6.120;2023-02-10T04:08:36;-1.80;99.90
12911;DHT22;6523;49.758;6.120;2023-02-10T04:11:02;-1.80;99.90
12911;DHT22;6523;49.758;6.120;2023-02-10T04:13:27;-1.80;99.90
12911;DHT22;6523;49.758;6.120;2023-02-10T04:16:08;-1.80;99.90
12911;DHT22;6523;49.758;6.120;2023-02-10T04:18:34;-1.80;99.90
12911;DHT22;6523;49.758;6.120;2023-02-10T04:21:01;-1.70;99.90
12911;DHT22;6523;49.758;6.120;2023-02-10T04:23:28;-1.70;99.90
12911;DHT22;6523;49.758;6.120;2023-02-10T04:25:54;-1.80;99.90
12911;DHT22;6523;49.758;6.120;2023-02-10T04:28:20;-1.80;99.90
12911;DHT22;6523;49.758;6.120;2023-02-10T04:30:45;-1.70;99.90
12911;DHT22;6523;49.758;6.120;2023-02-10T04:33:11;-1.60;99.90
12911;DHT22;6523;49.758;6.120;2023-02-10T04:35:37;-1.60;99.90
12911;DHT22;6523;49.758;6.120;2023-02-10T04:38:03;-1.70;99.90
12911;DHT22;6523;49.758;6.120;2023-02-10T04:40:29;-1.70;99.90
12911;DHT22;6523;49.758;6.120;2023-02-10T04:42:55;-1.70;99.90
12911;DHT22;6523;49.758;6.120;2023-02-10T04:45:21;-1.60;99.90
12911;DHT22;6523;49.758;6.120;2023-02-10T04:47:46;-1.60;99.90
12911;DHT22;6523;49.758;6.120;2023-02-10T04:50:13;-1.60;99.90
12911;DHT22;6523;49.758;6.120;2023-02-10T04:52:38;-1.60;99.90
12911;DHT22;6523;49.758;6.120;2023-02-10T04:55:04;-1.60;99.90
12911;DHT22;6523;49.758;6.120;2023-02-10T04:57:30;-1.60;99.90
12911;DHT22;6523;49.758;6.120;2023-02-10T04:59:55;-1.70;99.90
12911;DHT22;6523;49.758;6.120;2023-02-10T05:02:21;-1.60;99.90
12911;DHT22;6523;49.758;6.120;2023-02-10T05:04:47;-1.60;99.90
12911;DHT22;6523;49.758;6.120;2023-02-10T05:07:12;-1.60;99.90
12911;DHT22;6523;49.758;6.120;2023-02-10T05:09:38;-1.70;99.90
12911;DHT22;6523;49.758;6.120;2023-02-10T05:12:03;-1.70;99.90
12911;DHT22;6523;49.758;6.120;2023-02-10T05:14:29;-1.60;99.90
12911;DHT22;6523;49.758;6.120;2023-02-10T05:16:54;-1.60;99.90
12911;DHT22;6523;49.758;6.120;2023-02-10T05:19:21;-1.60;99.90
12911;DHT22;6523;49.758;6.120;2023-02-10T05:21:46;-1.60;99.90
12911;DHT22;6523;49.758;6.120;2023-02-10T05:24:12;-1.50;99.90
12911;DHT22;6523;49.758;6.120;2023-02-10T05:26:38;-1.50;99.90
12911;DHT22;6523;49.758;6.120;2023-02-10T05:29:03;-1.60;99.90
12911;DHT22;6523;49.758;6.120;2023-02-10T05:31:29;-1.60;99.90
12911;DHT22;6523;49.758;6.120;2023-02-10T05:33:54;-1.50;99.90
12911;DHT22;6523;49.758;6.120;2023-02-10T05:36:21;-1.50;99.90
12911;DHT22;6523;49.758;6.120;2023-02-10T05:38:46;-1.50;99.90
12911;DHT22;6523;49.758;6.120;2023-02-10T05:41:31;-1.50;99.90
12911;DHT22;6523;49.758;6.120;2023-02-10T05:43:57;-1.50;99.90
12911;DHT22;6523;49.758;6.120;2023-02-10T05:46:23;-1.40;99.90
12911;DHT22;6523;49.758;6.120;2023-02-10T05:48:48;-1.50;99.90
12911;DHT22;6523;49.758;6.120;2023-02-10T05:51:14;-1.40;99.90
12911;DHT22;6523;49.758;6.120;2023-02-10T05:53:39;-1.50;99.90
12911;DHT22;6523;49.758;6.120;2023-02-10T05:56:05;-1.50;99.90
12911;DHT22;6523;49.758;6.120;2023-02-10T05:58:31;-1.40;99.90
12911;DHT22;6523;49.758;6.120;2023-02-10T06:00:58;-1.50;99.90
12911;DHT22;6523;49.758;6.120;2023-02-10T06:03:24;-1.50;99.90
12911;DHT22;6523;49.758;6.120;2023-02-10T06:05:49;-1.50;99.90
12911;DHT22;6523;49.758;6.120;2023-02-10T06:08:15;-1.50;99.90
12911;DHT22;6523;49.758;6.120;2023-02-10T06:10:40;-1.50;99.90
12911;DHT22;6523;49.758;6.120;2023-02-10T06:13:06;-1.50;99.90
12911;DHT22;6523;49.758;6.120;2023-02-10T06:15:31;-1.50;99.90
12911;DHT22;6523;49.758;6.120;2023-02-10T06:17:57;-1.50;99.90
12911;DHT22;6523;49.758;6.120;2023-02-10T06:20:22;-1.50;99.90
12911;DHT22;6523;49.758;6.120;2023-02-10T06:22:48;-1.50;99.90
12911;DHT22;6523;49.758;6.120;2023-02-10T06:25:14;-1.60;99.90
12911;DHT22;6523;49.758;6.120;2023-02-10T06:27:39;-1.60;99.90
12911;DHT22;6523;49.758;6.120;2023-02-10T06:30:06;-1.60;99.90
12911;DHT22;6523;49.758;6.120;2023-02-10T06:32:31;-1.60;99.90
12911;DHT22;6523;49.758;6.120;2023-02-10T06:34:57;-1.60;99.90
12911;DHT22;6523;49.758;6.120;2023-02-10T06:37:23;-1.60;99.90
12911;DHT22;6523;49.758;6.120;2023-02-10T06:39:49;-1.60;99.90
12911;DHT22;6523;49.758;6.120;2023-02-10T06:42:15;-1.70;99.90
12911;DHT22;6523;49.758;6.120;2023-02-10T06:44:40;-1.70;99.90
12911;DHT22;6523;49.758;6.120;2023-02-10T06:47:06;-1.70;99.90
12911;DHT22;6523;49.758;6.120;2023-02-10T06:49:31;-1.60;99.90
12911;DHT22;6523;49.758;6.120;2023-02-10T06:51:57;-1.60;99.90
12911;DHT22;6523;49.758;6.120;2023-02-10T06:54:23;-1.60;99.90
12911;DHT22;6523;49.758;6.120;2023-02-10T06:56:48;-1.50;99.90
12911;DHT22;6523;49.758;6.120;2023-02-10T06:59:14;-1.50;99.90
12911;DHT22;6523;49.758;6.120;2023-02-10T07:01:40;-1.40;99.90
12911;DHT22;6523;49.758;6.120;2023-02-10T07:04:06;-1.40;99.90
12911;DHT22;6523;49.758;6.120;2023-02-10T07:06:32;-1.40;99.90
12911;DHT22;6523;49.758;6.120;2023-02-10T07:08:58;-1.40;99.90
12911;DHT22;6523;49.758;6.120;2023-02-10T07:11:23;-1.30;99.90
12911;DHT22;6523;49.758;6.120;2023-02-10T07:13:49;-1.30;99.90
12911;DHT22;6523;49.758;6.120;2023-02-10T07:16:14;-1.30;99.90
12911;DHT22;6523;49.758;6.120;2023-02-10T07:18:42;-1.20;99.90
12911;DHT22;6523;49.758;6.120;2023-02-10T07:21:07;-1.20;99.90
12911;DHT22;6523;49.758;6.120;2023-02-10T07:23:33;-1.20;99.90
12911;DHT22;6523;49.758;6.120;2023-02-10T07:25:58;-1.30;99.90
12911;DHT22;6523;49.758;6.120;2023-02-10T07:28:24;-1.30;99.90
12911;DHT22;6523;49.758;6.120;2023-02-10T07:30:50;-1.30;99.90
12911;DHT22;6523;49.758;6.120;2023-02-10T07:33:15;-1.10;99.90
12911;DHT22;6523;49.758;6.120;2023-02-10T07:35:41;-1.10;99.90
12911;DHT22;6523;49.758;6.120;2023-02-10T07:38:06;-1.10;99.90
12911;DHT22;6523;49.758;6.120;2023-02-10T07:40:32;-1.20;99.90
12911;DHT22;6523;49.758;6.120;2023-02-10T07:42:58;-1.10;99.90
12911;DHT22;6523;49.758;6.120;2023-02-10T07:45:23;-1.10;99.90
12911;DHT22;6523;49.758;6.120;2023-02-10T07:47:52;-1.10;99.90
12911;DHT22;6523;49.758;6.120;2023-02-10T07:50:17;-1.10;99.90
12911;DHT22;6523;49.758;6.120;2023-02-10T07:52:43;-1.00;99.90
12911;DHT22;6523;49.758;6.120;2023-02-10T07:55:09;-0.90;99.90
12911;DHT22;6523;49.758;6.120;2023-02-10T07:57:34;-0.90;99.90
12911;DHT22;6523;49.758;6.120;2023-02-10T08:00:00;-0.70;99.90
12911;DHT22;6523;49.758;6.120;2023-02-10T08:02:25;-0.70;99.90
12911;DHT22;6523;49.758;6.120;2023-02-10T08:04:51;-0.70;99.90
12911;DHT22;6523;49.758;6.120;2023-02-10T08:07:19;-0.60;99.90
12911;DHT22;6523;49.758;6.120;2023-02-10T08:09:45;-0.70;99.90
12911;DHT22;6523;49.758;6.120;2023-02-10T08:12:10;-0.60;99.90
12911;DHT22;6523;49.758;6.120;2023-02-10T08:14:36;-0.50;99.90
12911;DHT22;6523;49.758;6.120;2023-02-10T08:17:02;-0.40;99.90
12911;DHT22;6523;49.758;6.120;2023-02-10T08:19:27;-0.30;99.90
12911;DHT22;6523;49.758;6.120;2023-02-10T08:21:53;-0.20;99.90
12911;DHT22;6523;49.758;6.120;2023-02-10T08:24:19;-0.20;99.90
12911;DHT22;6523;49.758;6.120;2023-02-10T08:26:44;-0.20;99.90
12911;DHT22;6523;49.758;6.120;2023-02-10T08:29:10;-0.20;99.90
12911;DHT22;6523;49.758;6.120;2023-02-10T08:31:36;-0.20;99.90
12911;DHT22;6523;49.758;6.120;2023-02-10T08:34:01;-0.10;99.90
12911;DHT22;6523;49.758;6.120;2023-02-10T08:36:27;0.00;99.90
12911;DHT22;6523;49.758;6.120;2023-02-10T08:38:52;0.10;99.90
12911;DHT22;6523;49.758;6.120;2023-02-10T08:41:18;0.10;99.90
12911;DHT22;6523;49.758;6.120;2023-02-10T08:43:44;0.20;99.90
12911;DHT22;6523;49.758;6.120;2023-02-10T08:46:10;0.20;99.90
12911;DHT22;6523;49.758;6.120;2023-02-10T08:48:36;0.30;99.90
12911;DHT22;6523;49.758;6.120;2023-02-10T08:51:08;0.30;99.90
12911;DHT22;6523;49.758;6.120;2023-02-10T08:53:34;0.40;99.90
12911;DHT22;6523;49.758;6.120;2023-02-10T08:56:03;0.40;99.90
12911;DHT22;6523;49.758;6.120;2023-02-10T08:58:29;0.30;99.90
12911;DHT22;6523;49.758;6.120;2023-02-10T09:00:54;0.30;99.90
12911;DHT22;6523;49.758;6.120;2023-02-10T09:03:20;0.40;99.90
12911;DHT22;6523;49.758;6.120;2023-02-10T09:05:46;0.50;99.90
12911;DHT22;6523;49.758;6.120;2023-02-10T09:08:14;0.60;99.90
12911;DHT22;6523;49.758;6.120;2023-02-10T09:10:41;0.80;99.90
12911;DHT22;6523;49.758;6.120;2023-02-10T09:13:07;0.70;99.90
12911;DHT22;6523;49.758;6.120;2023-02-10T09:15:39;0.80;99.90
12911;DHT22;6523;49.758;6.120;2023-02-10T09:18:05;0.80;99.90
12911;DHT22;6523;49.758;6.120;2023-02-10T09:20:31;0.80;99.90
12911;DHT22;6523;49.758;6.120;2023-02-10T09:22:56;1.00;99.90
12911;DHT22;6523;49.758;6.120;2023-02-10T09:25:22;1.00;99.90
12911;DHT22;6523;49.758;6.120;2023-02-10T09:27:47;1.00;99.90
12911;DHT22;6523;49.758;6.120;2023-02-10T09:30:13;1.20;99.90
12911;DHT22;6523;49.758;6.120;2023-02-10T09:32:39;1.10;99.90
12911;DHT22;6523;49.758;6.120;2023-02-10T09:35:05;1.20;99.90
12911;DHT22;6523;49.758;6.120;2023-02-10T09:37:31;1.30;99.90
12911;DHT22;6523;49.758;6.120;2023-02-10T09:39:56;1.40;99.90
12911;DHT22;6523;49.758;6.120;2023-02-10T09:45:15;1.30;99.90
12911;DHT22;6523;49.758;6.120;2023-02-10T09:47:49;1.40;99.90
12911;DHT22;6523;49.758;6.120;2023-02-10T09:53:17;1.80;99.90
12911;DHT22;6523;49.758;6.120;2023-02-10T09:55:59;2.20;99.90
12911;DHT22;6523;49.758;6.120;2023-02-10T09:58:38;2.50;99.90
12911;DHT22;6523;49.758;6.120;2023-02-10T10:03:59;2.80;99.90
12911;DHT22;6523;49.758;6.120;2023-02-10T10:06:37;2.60;99.90
12911;DHT22;6523;49.758;6.120;2023-02-10T10:09:50;2.60;99.90
12911;DHT22;6523;49.758;6.120;2023-02-10T10:11:51;2.60;99.90
12911;DHT22;6523;49.758;6.120;2023-02-10T10:14:43;2.60;99.90
12911;DHT22;6523;49.758;6.120;2023-02-10T10:25:49;2.90;99.90
12911;DHT22;6523;49.758;6.120;2023-02-10T10:31:27;2.80;99.90
12911;DHT22;6523;49.758;6.120;2023-02-10T10:36:46;2.90;99.90
12911;DHT22;6523;49.758;6.120;2023-02-10T10:41:49;3.20;99.90
12911;DHT22;6523;49.758;6.120;2023-02-10T10:44:16;3.20;99.90
12911;DHT22;6523;49.758;6.120;2023-02-10T10:47:03;3.40;99.90
12911;DHT22;6523;49.758;6.120;2023-02-10T10:49:35;3.40;99.90
12911;DHT22;6523;49.758;6.120;2023-02-10T10:52:01;3.40;99.90
12911;DHT22;6523;49.758;6.120;2023-02-10T10:54:27;3.30;99.90
12911;DHT22;6523;49.758;6.120;2023-02-10T10:56:56;3.20;99.90
12911;DHT22;6523;49.758;6.120;2023-02-10T10:59:45;3.30;99.90
12911;DHT22;6523;49.758;6.120;2023-02-10T11:04:40;3.30;99.90
12911;DHT22;6523;49.758;6.120;2023-02-10T11:07:20;3.30;99.90
12911;DHT22;6523;49.758;6.120;2023-02-10T11:09:53;3.30;99.90
12911;DHT22;6523;49.758;6.120;2023-02-10T11:12:34;3.30;99.90
12911;DHT22;6523;49.758;6.120;2023-02-10T11:15:05;3.50;99.90
12911;DHT22;6523;49.758;6.120;2023-02-10T11:17:48;3.50;99.90
12911;DHT22;6523;49.758;6.120;2023-02-10T11:22:42;3.50;99.90
12911;DHT22;6523;49.758;6.120;2023-02-10T11:27:53;3.70;99.90
12911;DHT22;6523;49.758;6.120;2023-02-10T11:32:54;3.80;99.90
12911;DHT22;6523;49.758;6.120;2023-02-10T11:35:20;3.90;99.90
12911;DHT22;6523;49.758;6.120;2023-02-10T11:37:54;4.00;99.90
12911;DHT22;6523;49.758;6.120;2023-02-10T11:40:29;4.00;99.90
12911;DHT22;6523;49.758;6.120;2023-02-10T11:42:59;4.00;99.90
12911;DHT22;6523;49.758;6.120;2023-02-10T11:45:28;4.20;99.90
12911;DHT22;6523;49.758;6.120;2023-02-10T11:50:33;4.10;99.90
12911;DHT22;6523;49.758;6.120;2023-02-10T11:52:59;4.10;99.90
12911;DHT22;6523;49.758;6.120;2023-02-10T11:55:46;4.20;99.90
12911;DHT22;6523;49.758;6.120;2023-02-10T11:58:28;4.30;99.90
12911;DHT22;6523;49.758;6.120;2023-02-10T12:04:21;4.60;99.90
12911;DHT22;6523;49.758;6.120;2023-02-10T12:09:44;4.40;99.90
12911;DHT22;6523;49.758;6.120;2023-02-10T12:25:29;5.10;99.90
12911;DHT22;6523;49.758;6.120;2023-02-10T12:31:20;5.10;99.90
12911;DHT22;6523;49.758;6.120;2023-02-10T12:39:32;5.10;99.90
12911;DHT22;6523;49.758;6.120;2023-02-10T12:44:59;5.20;99.90
12911;DHT22;6523;49.758;6.120;2023-02-10T12:47:38;5.10;99.90
12911;DHT22;6523;49.758;6.120;2023-02-10T12:50:25;5.20;99.90
12911;DHT22;6523;49.758;6.120;2023-02-10T12:52:59;5.20;99.90
12911;DHT22;6523;49.758;6.120;2023-02-10T12:55:49;5.30;99.90
12911;DHT22;6523;49.758;6.120;2023-02-10T12:58:21;5.50;99.90
12911;DHT22;6523;49.758;6.120;2023-02-10T13:03:33;5.70;99.90
12911;DHT22;6523;49.758;6.120;2023-02-10T13:06:25;5.70;99.90
12911;DHT22;6523;49.758;6.120;2023-02-10T13:14:41;5.90;99.90
12911;DHT22;6523;49.758;6.120;2023-02-10T13:17:09;6.00;99.90
12911;DHT22;6523;49.758;6.120;2023-02-10T13:20:00;6.00;99.90
12911;DHT22;6523;49.758;6.120;2023-02-10T13:22:45;5.80;99.90
12911;DHT22;6523;49.758;6.120;2023-02-10T13:25:27;5.70;99.90
12911;DHT22;6523;49.758;6.120;2023-02-10T13:36:21;5.60;99.90
12911;DHT22;6523;49.758;6.120;2023-02-10T13:38:58;5.70;99.90
12911;DHT22;6523;49.758;6.120;2023-02-10T13:41:29;5.90;99.90
12911;DHT22;6523;49.758;6.120;2023-02-10T13:44:27;6.00;99.90
12911;DHT22;6523;49.758;6.120;2023-02-10T13:50:00;6.00;99.90
12911;DHT22;6523;49.758;6.120;2023-02-10T13:52:31;6.10;99.90
12911;DHT22;6523;49.758;6.120;2023-02-10T13:55:29;6.00;99.90
12911;DHT22;6523;49.758;6.120;2023-02-10T14:00:46;5.80;99.90
12911;DHT22;6523;49.758;6.120;2023-02-10T14:08:33;5.70;99.90
12911;DHT22;6523;49.758;6.120;2023-02-10T14:11:22;5.70;99.90
12911;DHT22;6523;49.758;6.120;2023-02-10T14:13:59;5.80;99.90
12911;DHT22;6523;49.758;6.120;2023-02-10T14:16:36;5.80;99.90
12911;DHT22;6523;49.758;6.120;2023-02-10T14:19:06;5.80;99.90
12911;DHT22;6523;49.758;6.120;2023-02-10T14:21:46;5.80;99.90
12911;DHT22;6523;49.758;6.120;2023-02-10T14:24:22;5.90;99.90
12911;DHT22;6523;49.758;6.120;2023-02-10T14:26:49;5.90;99.90
12911;DHT22;6523;49.758;6.120;2023-02-10T14:29:17;5.80;99.90
12911;DHT22;6523;49.758;6.120;2023-02-10T14:31:45;6.20;99.90
12911;DHT22;6523;49.758;6.120;2023-02-10T14:34:36;6.10;99.90
12911;DHT22;6523;49.758;6.120;2023-02-10T14:37:20;6.10;99.90
12911;DHT22;6523;49.758;6.120;2023-02-10T14:42:21;6.20;99.90
12911;DHT22;6523;49.758;6.120;2023-02-10T14:44:50;6.60;99.90
12911;DHT22;6523;49.758;6.120;2023-02-10T14:49:54;6.20;99.90
12911;DHT22;6523;49.758;6.120;2023-02-10T14:53:14;6.20;99.90
12911;DHT22;6523;49.758;6.120;2023-02-10T14:55:23;6.30;99.90
12911;DHT22;6523;49.758;6.120;2023-02-10T14:57:49;6.00;99.90
12911;DHT22;6523;49.758;6.120;2023-02-10T15:00:15;6.00;99.90
12911;DHT22;6523;49.758;6.120;2023-02-10T15:02:47;6.10;99.90
12911;DHT22;6523;49.758;6.120;2023-02-10T15:05:17;6.40;99.90
12911;DHT22;6523;49.758;6.120;2023-02-10T15:07:47;6.70;99.90
12911;DHT22;6523;49.758;6.120;2023-02-10T15:10:27;6.70;99.90
12911;DHT22;6523;49.758;6.120;2023-02-10T15:12:54;6.80;99.90
12911;DHT22;6523;49.758;6.120;2023-02-10T15:15:35;6.70;99.90
12911;DHT22;6523;49.758;6.120;2023-02-10T15:18:05;6.70;99.90
12911;DHT22;6523;49.758;6.120;2023-02-10T15:20:34;6.70;99.90
12911;DHT22;6523;49.758;6.120;2023-02-10T15:25:34;6.60;99.90
12911;DHT22;6523;49.758;6.120;2023-02-10T15:30:51;6.70;99.90
12911;DHT22;6523;49.758;6.120;2023-02-10T15:33:27;6.80;99.90
12911;DHT22;6523;49.758;6.120;2023-02-10T15:39:20;6.70;99.90
12911;DHT22;6523;49.758;6.120;2023-02-10T15:43:53;6.70;99.90
12911;DHT22;6523;49.758;6.120;2023-02-10T15:46:22;6.50;99.90
12911;DHT22;6523;49.758;6.120;2023-02-10T15:48:48;6.30;99.90
12911;DHT22;6523;49.758;6.120;2023-02-10T15:51:25;5.80;99.90
12911;DHT22;6523;49.758;6.120;2023-02-10T15:53:53;5.70;99.90
12911;DHT22;6523;49.758;6.120;2023-02-10T15:56:24;5.70;99.90
12911;DHT22;6523;49.758;6.120;2023-02-10T15:58:50;5.80;99.90
12911;DHT22;6523;49.758;6.120;2023-02-10T16:01:16;5.90;99.90
12911;DHT22;6523;49.758;6.120;2023-02-10T16:03:42;5.80;99.90
12911;DHT22;6523;49.758;6.120;2023-02-10T16:06:13;5.70;99.90
12911;DHT22;6523;49.758;6.120;2023-02-10T16:08:41;5.50;99.90
12911;DHT22;6523;49.758;6.120;2023-02-10T16:11:09;5.50;99.90
12911;DHT22;6523;49.758;6.120;2023-02-10T16:13:35;5.30;99.90
12911;DHT22;6523;49.758;6.120;2023-02-10T16:16:01;5.30;99.90
12911;DHT22;6523;49.758;6.120;2023-02-10T16:18:26;5.20;99.90
12911;DHT22;6523;49.758;6.120;2023-02-10T16:20:54;5.10;99.90
12911;DHT22;6523;49.758;6.120;2023-02-10T16:23:20;5.10;99.90
12911;DHT22;6523;49.758;6.120;2023-02-10T16:25:47;4.90;99.90
12911;DHT22;6523;49.758;6.120;2023-02-10T16:28:15;4.80;99.90
12911;DHT22;6523;49.758;6.120;2023-02-10T16:30:41;4.60;99.90
12911;DHT22;6523;49.758;6.120;2023-02-10T16:33:07;4.60;99.90
12911;DHT22;6523;49.758;6.120;2023-02-10T16:35:33;4.60;99.90
12911;DHT22;6523;49.758;6.120;2023-02-10T16:37:58;4.50;99.90
12911;DHT22;6523;49.758;6.120;2023-02-10T16:40:32;4.50;99.90
12911;DHT22;6523;49.758;6.120;2023-02-10T16:42:58;4.40;99.90
12911;DHT22;6523;49.758;6.120;2023-02-10T16:45:26;4.30;99.90
12911;DHT22;6523;49.758;6.120;2023-02-10T16:47:52;4.30;99.90
12911;DHT22;6523;49.758;6.120;2023-02-10T16:50:39;4.20;99.90
12911;DHT22;6523;49.758;6.120;2023-02-10T16:53:06;4.30;99.90
12911;DHT22;6523;49.758;6.120;2023-02-10T16:55:33;4.20;99.90
12911;DHT22;6523;49.758;6.120;2023-02-10T16:57:59;4.20;99.90
12911;DHT22;6523;49.758;6.120;2023-02-10T17:00:25;4.00;99.90
12911;DHT22;6523;49.758;6.120;2023-02-10T17:02:51;4.00;99.90
12911;DHT22;6523;49.758;6.120;2023-02-10T17:05:17;3.90;99.90
12911;DHT22;6523;49.758;6.120;2023-02-10T17:07:43;3.80;99.90
12911;DHT22;6523;49.758;6.120;2023-02-10T17:10:18;3.70;99.90
12911;DHT22;6523;49.758;6.120;2023-02-10T17:12:44;3.60;99.90
12911;DHT22;6523;49.758;6.120;2023-02-10T17:15:10;3.60;99.90
12911;DHT22;6523;49.758;6.120;2023-02-10T17:17:36;3.50;99.90
12911;DHT22;6523;49.758;6.120;2023-02-10T17:20:03;3.60;99.90
12911;DHT22;6523;49.758;6.120;2023-02-10T17:22:28;3.50;99.90
12911;DHT22;6523;49.758;6.120;2023-02-10T17:24:54;3.50;99.90
12911;DHT22;6523;49.758;6.120;2023-02-10T17:27:19;3.40;99.90
12911;DHT22;6523;49.758;6.120;2023-02-10T17:29:45;3.40;99.90
12911;DHT22;6523;49.758;6.120;2023-02-10T17:32:10;3.40;99.90
12911;DHT22;6523;49.758;6.120;2023-02-10T17:34:36;3.50;99.90
12911;DHT22;6523;49.758;6.120;2023-02-10T17:37:03;3.50;99.90
12911;DHT22;6523;49.758;6.120;2023-02-10T17:39:33;3.30;99.90
12911;DHT22;6523;49.758;6.120;2023-02-10T17:42:07;3.30;99.90
12911;DHT22;6523;49.758;6.120;2023-02-10T17:44:32;3.10;99.90
12911;DHT22;6523;49.758;6.120;2023-02-10T17:46:58;3.00;99.90
12911;DHT22;6523;49.758;6.120;2023-02-10T17:49:30;2.90;99.90
12911;DHT22;6523;49.758;6.120;2023-02-10T17:51:56;2.80;99.90
12911;DHT22;6523;49.758;6.120;2023-02-10T17:54:22;2.60;99.90
12911;DHT22;6523;49.758;6.120;2023-02-10T17:56:48;2.30;99.90
12911;DHT22;6523;49.758;6.120;2023-02-10T17:59:13;2.50;99.90
12911;DHT22;6523;49.758;6.120;2023-02-10T18:01:40;2.30;99.90
12911;DHT22;6523;49.758;6.120;2023-02-10T18:04:06;2.10;99.90
12911;DHT22;6523;49.758;6.120;2023-02-10T18:06:32;2.00;99.90
12911;DHT22;6523;49.758;6.120;2023-02-10T18:08:58;2.10;99.90
12911;DHT22;6523;49.758;6.120;2023-02-10T18:11:25;2.20;99.90
12911;DHT22;6523;49.758;6.120;2023-02-10T18:13:52;2.10;99.90
12911;DHT22;6523;49.758;6.120;2023-02-10T18:16:18;2.10;99.90
12911;DHT22;6523;49.758;6.120;2023-02-10T18:18:43;2.00;99.90
12911;DHT22;6523;49.758;6.120;2023-02-10T18:21:18;1.60;99.90
12911;DHT22;6523;49.758;6.120;2023-02-10T18:23:44;1.40;99.90
12911;DHT22;6523;49.758;6.120;2023-02-10T18:26:10;1.30;99.90